createdAt,value
2023-03-23T00:02:16.974Z,1002.90
2023-03-23T00:17:16.991Z,1002.84
2023-03-23T00:32:17.221Z,1002.64
2023-03-23T00:47:17.467Z,1002.45
2023-03-23T01:02:17.945Z,1002.25
2023-03-23T01:17:17.835Z,1002.07
2023-03-23T01:32:18.103Z,1002.11
2023-03-23T01:47:18.369Z,1001.77
2023-03-23T02:02:18.986Z,1001.82
2023-03-23T02:17:19.585Z,1001.68
2023-03-23T02:32:19.878Z,1001.69
2023-03-23T02:47:20.404Z,1001.48
2023-03-23T03:02:20.743Z,1001.65
2023-03-23T03:17:21.590Z,1001.71
2023-03-23T03:32:21.783Z,1001.71
2023-03-23T03:47:22.469Z,1001.71
2023-03-23T04:02:23.374Z,1001.68
2023-03-23T04:17:23.503Z,1001.50
2023-03-23T04:32:23.732Z,1001.53
2023-03-23T04:47:24.042Z,1001.64
2023-03-23T05:02:24.439Z,1001.69
2023-03-23T05:17:29.466Z,1001.69
2023-03-23T05:32:29.658Z,1001.81
2023-03-23T05:47:30.442Z,1001.74
2023-03-23T06:02:31.291Z,1001.61
2023-03-23T06:17:31.746Z,1001.73
2023-03-23T06:32:31.674Z,1001.79
2023-03-23T06:47:31.964Z,1001.74
2023-03-23T07:02:32.298Z,1001.72
2023-03-23T07:17:32.414Z,1001.77
2023-03-23T07:32:33.048Z,1001.19
2023-03-23T07:47:34.341Z,1001.39
2023-03-23T08:02:35.380Z,1001.70
2023-03-23T08:17:35.759Z,1001.77
2023-03-23T08:32:35.710Z,1001.86
2023-03-23T08:47:35.936Z,1001.84
2023-03-23T09:02:36.141Z,1002.13
2023-03-23T09:17:36.174Z,1002.04
2023-03-23T09:32:36.411Z,1001.81
2023-03-23T09:47:36.606Z,1001.98
2023-03-23T10:02:36.989Z,1002.11
2023-03-23T10:17:37.497Z,1002.02
2023-03-23T10:32:38.271Z,1001.97
2023-03-23T10:47:38.453Z,1001.92
2023-03-23T11:02:39.108Z,1002.02
2023-03-23T11:17:39.767Z,1002.24
2023-03-23T11:32:40.039Z,1002.34
2023-03-23T11:47:40.680Z,1002.41
2023-03-23T12:02:41.164Z,1002.26
2023-03-23T12:17:41.865Z,1002.11
2023-03-23T12:32:41.685Z,1002.32
2023-03-23T12:47:41.302Z,1002.10
2023-03-23T13:02:41.464Z,1001.89
2023-03-23T13:17:41.174Z,1001.99
2023-03-23T13:32:49.876Z,1001.79
2023-03-23T13:47:46.399Z,1001.42
2023-03-23T14:02:46.395Z,1001.62
2023-03-23T14:17:46.707Z,1001.62
2023-03-23T14:32:47.053Z,1001.70
2023-03-23T14:47:47.156Z,1001.69
2023-03-23T15:02:46.839Z,1001.58
2023-03-23T15:17:46.930Z,1001.65
